Guaiba, Brazil
Current Conditions -  °F | °C
As of 1:00 AM on Monday 20 Oct 2014 (Local Time) from SBPA Reporting Station
Clear Clear  
Wind Chill: 63°   Ceiling: Unl
Heat Index: 63°   Visibility: 6mi
Dew Point: 61°   Wind: 2mph
Humidity: 94%   Direction: NA
Pressure: 30.03"   Gusts: NA
Location:  30.11°S, 51.32°W
Report Text: SBPA 200400Z VRB02KT CAVOK 17/16 Q1017
Loading
Personal Weather Stations






























Interactive Weather Map
Tropical Storm Tracking
New forecast layout! Learn more

10-Day Weather Forecast

Advertisements
Track Severe Weather on mobile